sensor_id;sensor_type;location;lat;lon;timestamp;P1;durP1;ratioP1;P2;durP2;ratioP2
41952;SDS011;63613;28.200;112.870;2022-11-10T00:01:03;47.63;;;35.25;;
41952;SDS011;63613;28.200;112.870;2022-11-10T00:03:32;41.42;;;32.33;;
41952;SDS011;63613;28.200;112.870;2022-11-10T00:06:03;44.22;;;33.65;;
41952;SDS011;63613;28.200;112.870;2022-11-10T00:08:31;48.75;;;34.17;;
41952;SDS011;63613;28.200;112.870;2022-11-10T00:11:02;42.33;;;35.08;;
41952;SDS011;63613;28.200;112.870;2022-11-10T00:13:32;45.13;;;34.30;;
41952;SDS011;63613;28.200;112.870;2022-11-10T00:16:20;48.63;;;35.17;;
41952;SDS011;63613;28.200;112.870;2022-11-10T00:19:05;44.03;;;34.92;;
41952;SDS011;63613;28.200;112.870;2022-11-10T00:21:36;50.15;;;36.20;;
41952;SDS011;63613;28.200;112.870;2022-11-10T00:24:15;47.88;;;35.13;;
41952;SDS011;63613;28.200;112.870;2022-11-10T00:26:52;44.22;;;34.97;;
41952;SDS011;63613;28.200;112.870;2022-11-10T00:29:40;46.08;;;34.65;;
41952;SDS011;63613;28.200;112.870;2022-11-10T00:32:07;46.78;;;35.40;;
41952;SDS011;63613;28.200;112.870;2022-11-10T00:34:35;41.35;;;34.58;;
41952;SDS011;63613;28.200;112.870;2022-11-10T00:37:02;46.85;;;34.25;;
41952;SDS011;63613;28.200;112.870;2022-11-10T00:39:29;41.42;;;33.47;;
41952;SDS011;63613;28.200;112.870;2022-11-10T00:41:56;42.22;;;32.58;;
41952;SDS011;63613;28.200;112.870;2022-11-10T00:44:23;42.65;;;31.27;;
41952;SDS011;63613;28.200;112.870;2022-11-10T00:46:51;38.20;;;29.70;;
41952;SDS011;63613;28.200;112.870;2022-11-10T00:49:18;45.35;;;31.92;;
41952;SDS011;63613;28.200;112.870;2022-11-10T00:51:46;44.83;;;33.40;;
41952;SDS011;63613;28.200;112.870;2022-11-10T00:54:13;41.17;;;32.22;;
41952;SDS011;63613;28.200;112.870;2022-11-10T00:57:00;40.17;;;31.08;;
41952;SDS011;63613;28.200;112.870;2022-11-10T00:59:28;42.80;;;31.95;;
41952;SDS011;63613;28.200;112.870;2022-11-10T01:01:55;48.83;;;32.08;;
41952;SDS011;63613;28.200;112.870;2022-11-10T01:04:22;46.03;;;33.75;;
41952;SDS011;63613;28.200;112.870;2022-11-10T01:06:49;43.80;;;33.85;;
41952;SDS011;63613;28.200;112.870;2022-11-10T01:09:17;44.08;;;32.92;;
41952;SDS011;63613;28.200;112.870;2022-11-10T01:11:57;45.13;;;34.08;;
41952;SDS011;63613;28.200;112.870;2022-11-10T01:14:43;47.25;;;35.40;;
41952;SDS011;63613;28.200;112.870;2022-11-10T01:17:13;46.05;;;34.92;;
41952;SDS011;63613;28.200;112.870;2022-11-10T01:19:40;45.25;;;35.88;;
41952;SDS011;63613;28.200;112.870;2022-11-10T01:22:07;46.13;;;36.08;;
41952;SDS011;63613;28.200;112.870;2022-11-10T01:24:35;46.00;;;35.47;;
41952;SDS011;63613;28.200;112.870;2022-11-10T01:27:02;43.40;;;33.92;;
41952;SDS011;63613;28.200;112.870;2022-11-10T01:29:29;41.15;;;33.95;;
41952;SDS011;63613;28.200;112.870;2022-11-10T01:31:56;47.63;;;31.63;;
41952;SDS011;63613;28.200;112.870;2022-11-10T01:34:23;43.88;;;33.97;;
41952;SDS011;63613;28.200;112.870;2022-11-10T01:36:50;50.85;;;37.08;;
41952;SDS011;63613;28.200;112.870;2022-11-10T01:39:17;39.67;;;31.48;;
41952;SDS011;63613;28.200;112.870;2022-11-10T01:41:44;39.17;;;30.48;;
41952;SDS011;63613;28.200;112.870;2022-11-10T01:44:33;37.75;;;29.80;;
41952;SDS011;63613;28.200;112.870;2022-11-10T01:47:00;42.20;;;29.30;;
41952;SDS011;63613;28.200;112.870;2022-11-10T01:49:27;40.45;;;30.38;;
41952;SDS011;63613;28.200;112.870;2022-11-10T01:52:01;33.47;;;27.40;;
41952;SDS011;63613;28.200;112.870;2022-11-10T01:54:40;33.08;;;27.42;;
41952;SDS011;63613;28.200;112.870;2022-11-10T01:57:14;32.35;;;26.77;;
41952;SDS011;63613;28.200;112.870;2022-11-10T01:59:43;36.17;;;26.08;;
41952;SDS011;63613;28.200;112.870;2022-11-10T02:02:26;33.83;;;26.77;;
41952;SDS011;63613;28.200;112.870;2022-11-10T02:05:01;31.80;;;26.50;;
41952;SDS011;63613;28.200;112.870;2022-11-10T02:07:30;36.88;;;26.83;;
41952;SDS011;63613;28.200;112.870;2022-11-10T02:10:00;33.70;;;26.92;;
41952;SDS011;63613;28.200;112.870;2022-11-10T02:12:28;34.28;;;25.48;;
41952;SDS011;63613;28.200;112.870;2022-11-10T02:15:03;29.23;;;25.05;;
41952;SDS011;63613;28.200;112.870;2022-11-10T02:17:32;31.85;;;26.13;;
41952;SDS011;63613;28.200;112.870;2022-11-10T02:20:00;33.53;;;24.23;;
41952;SDS011;63613;28.200;112.870;2022-11-10T02:22:30;31.83;;;25.25;;
41952;SDS011;63613;28.200;112.870;2022-11-10T02:24:58;32.83;;;27.40;;
41952;SDS011;63613;28.200;112.870;2022-11-10T02:27:25;27.83;;;23.52;;
41952;SDS011;63613;28.200;112.870;2022-11-10T02:29:52;31.08;;;24.58;;
41952;SDS011;63613;28.200;112.870;2022-11-10T02:32:23;29.48;;;23.63;;
41952;SDS011;63613;28.200;112.870;2022-11-10T02:34:50;32.83;;;23.13;;
41952;SDS011;63613;28.200;112.870;2022-11-10T02:37:17;29.13;;;22.48;;
41952;SDS011;63613;28.200;112.870;2022-11-10T02:39:44;27.40;;;22.92;;
41952;SDS011;63613;28.200;112.870;2022-11-10T02:42:11;30.23;;;23.02;;
41952;SDS011;63613;28.200;112.870;2022-11-10T02:44:38;31.10;;;21.77;;
41952;SDS011;63613;28.200;112.870;2022-11-10T02:47:06;30.52;;;23.60;;
41952;SDS011;63613;28.200;112.870;2022-11-10T02:49:33;28.15;;;23.70;;
41952;SDS011;63613;28.200;112.870;2022-11-10T02:52:20;28.58;;;21.25;;
41952;SDS011;63613;28.200;112.870;2022-11-10T02:54:48;24.58;;;21.13;;
41952;SDS011;63613;28.200;112.870;2022-11-10T02:57:15;23.80;;;20.52;;
41952;SDS011;63613;28.200;112.870;2022-11-10T02:59:42;27.88;;;21.55;;
41952;SDS011;63613;28.200;112.870;2022-11-10T03:02:09;26.00;;;20.67;;
41952;SDS011;63613;28.200;112.870;2022-11-10T03:07:23;28.52;;;21.02;;
41952;SDS011;63613;28.200;112.870;2022-11-10T03:09:50;24.38;;;20.33;;
41952;SDS011;63613;28.200;112.870;2022-11-10T03:12:17;26.55;;;20.13;;
41952;SDS011;63613;28.200;112.870;2022-11-10T03:14:45;22.33;;;20.02;;
41952;SDS011;63613;28.200;112.870;2022-11-10T03:17:12;23.05;;;20.30;;
41952;SDS011;63613;28.200;112.870;2022-11-10T03:19:39;24.15;;;20.30;;
41952;SDS011;63613;28.200;112.870;2022-11-10T03:22:06;28.33;;;20.77;;
41952;SDS011;63613;28.200;112.870;2022-11-10T03:24:33;22.75;;;18.25;;
41952;SDS011;63613;28.200;112.870;2022-11-10T03:27:00;21.45;;;18.17;;
41952;SDS011;63613;28.200;112.870;2022-11-10T03:29:28;22.58;;;18.25;;
41952;SDS011;63613;28.200;112.870;2022-11-10T03:31:55;24.30;;;18.27;;
41952;SDS011;63613;28.200;112.870;2022-11-10T03:34:22;24.45;;;18.25;;
41952;SDS011;63613;28.200;112.870;2022-11-10T03:36:49;21.80;;;18.40;;
41952;SDS011;63613;28.200;112.870;2022-11-10T03:39:16;22.48;;;17.80;;
41952;SDS011;63613;28.200;112.870;2022-11-10T03:41:43;22.85;;;17.23;;
41952;SDS011;63613;28.200;112.870;2022-11-10T03:44:10;20.67;;;17.95;;
41952;SDS011;63613;28.200;112.870;2022-11-10T03:46:41;23.20;;;18.55;;
41952;SDS011;63613;28.200;112.870;2022-11-10T03:49:11;19.73;;;17.48;;
41952;SDS011;63613;28.200;112.870;2022-11-10T03:51:39;20.40;;;18.23;;
41952;SDS011;63613;28.200;112.870;2022-11-10T03:54:06;25.40;;;19.23;;
41952;SDS011;63613;28.200;112.870;2022-11-10T03:56:33;22.40;;;18.05;;
41952;SDS011;63613;28.200;112.870;2022-11-10T03:59:00;22.55;;;18.65;;
41952;SDS011;63613;28.200;112.870;2022-11-10T04:01:27;26.00;;;19.35;;
41952;SDS011;63613;28.200;112.870;2022-11-10T04:03:56;22.33;;;17.52;;
41952;SDS011;63613;28.200;112.870;2022-11-10T04:06:23;26.65;;;18.98;;
41952;SDS011;63613;28.200;112.870;2022-11-10T04:09:08;21.70;;;18.23;;
41952;SDS011;63613;28.200;112.870;2022-11-10T04:11:35;20.02;;;17.92;;
41952;SDS011;63613;28.200;112.870;2022-11-10T04:14:20;21.20;;;18.10;;
41952;SDS011;63613;28.200;112.870;2022-11-10T04:17:05;21.75;;;17.98;;
41952;SDS011;63613;28.200;112.870;2022-11-10T04:19:36;22.73;;;18.50;;
41952;SDS011;63613;28.200;112.870;2022-11-10T04:22:03;19.92;;;17.17;;
41952;SDS011;63613;28.200;112.870;2022-11-10T04:25:09;22.75;;;17.30;;
41952;SDS011;63613;28.200;112.870;2022-11-10T04:27:37;19.83;;;16.95;;
41952;SDS011;63613;28.200;112.870;2022-11-10T04:30:04;20.17;;;16.92;;
41952;SDS011;63613;28.200;112.870;2022-11-10T04:32:32;17.70;;;15.90;;
41952;SDS011;63613;28.200;112.870;2022-11-10T04:34:59;21.27;;;17.00;;
41952;SDS011;63613;28.200;112.870;2022-11-10T04:37:26;17.65;;;15.75;;
41952;SDS011;63613;28.200;112.870;2022-11-10T04:39:53;18.10;;;16.13;;
41952;SDS011;63613;28.200;112.870;2022-11-10T04:42:20;18.92;;;16.58;;
41952;SDS011;63613;28.200;112.870;2022-11-10T04:44:47;18.80;;;16.80;;
41952;SDS011;63613;28.200;112.870;2022-11-10T04:47:14;18.75;;;16.60;;
41952;SDS011;63613;28.200;112.870;2022-11-10T04:49:41;18.05;;;15.10;;
41952;SDS011;63613;28.200;112.870;2022-11-10T04:52:08;17.83;;;14.98;;
41952;SDS011;63613;28.200;112.870;2022-11-10T04:54:35;19.05;;;15.77;;
41952;SDS011;63613;28.200;112.870;2022-11-10T04:57:02;18.35;;;16.45;;
41952;SDS011;63613;28.200;112.870;2022-11-10T04:59:32;18.30;;;15.63;;
41952;SDS011;63613;28.200;112.870;2022-11-10T05:01:59;18.52;;;14.60;;
41952;SDS011;63613;28.200;112.870;2022-11-10T05:04:28;16.65;;;14.57;;
41952;SDS011;63613;28.200;112.870;2022-11-10T05:06:55;16.65;;;14.93;;
41952;SDS011;63613;28.200;112.870;2022-11-10T05:09:22;17.85;;;15.50;;
41952;SDS011;63613;28.200;112.870;2022-11-10T05:11:49;19.08;;;15.07;;
41952;SDS011;63613;28.200;112.870;2022-11-10T05:14:16;17.25;;;15.27;;
41952;SDS011;63613;28.200;112.870;2022-11-10T05:16:43;18.40;;;15.50;;
41952;SDS011;63613;28.200;112.870;2022-11-10T05:19:10;16.27;;;14.68;;
41952;SDS011;63613;28.200;112.870;2022-11-10T05:21:38;16.15;;;14.45;;
41952;SDS011;63613;28.200;112.870;2022-11-10T05:24:05;16.95;;;15.00;;
41952;SDS011;63613;28.200;112.870;2022-11-10T05:26:32;17.60;;;15.80;;
41952;SDS011;63613;28.200;112.870;2022-11-10T05:28:59;19.75;;;14.63;;
41952;SDS011;63613;28.200;112.870;2022-11-10T05:31:26;16.65;;;14.65;;
41952;SDS011;63613;28.200;112.870;2022-11-10T05:33:54;16.67;;;14.32;;
41952;SDS011;63613;28.200;112.870;2022-11-10T05:36:42;16.58;;;14.48;;
41952;SDS011;63613;28.200;112.870;2022-11-10T05:39:09;15.65;;;13.65;;
41952;SDS011;63613;28.200;112.870;2022-11-10T05:41:44;15.00;;;13.35;;
41952;SDS011;63613;28.200;112.870;2022-11-10T05:44:31;15.23;;;13.63;;
41952;SDS011;63613;28.200;112.870;2022-11-10T05:46:58;15.52;;;13.52;;
41952;SDS011;63613;28.200;112.870;2022-11-10T05:49:27;17.48;;;13.80;;
41952;SDS011;63613;28.200;112.870;2022-11-10T05:51:54;20.10;;;15.10;;
41952;SDS011;63613;28.200;112.870;2022-11-10T05:54:21;16.85;;;13.00;;
41952;SDS011;63613;28.200;112.870;2022-11-10T05:56:48;15.07;;;13.38;;
41952;SDS011;63613;28.200;112.870;2022-11-10T05:59:15;15.55;;;13.27;;
41952;SDS011;63613;28.200;112.870;2022-11-10T06:01:42;14.95;;;13.52;;
41952;SDS011;63613;28.200;112.870;2022-11-10T06:04:09;14.75;;;13.25;;
41952;SDS011;63613;28.200;112.870;2022-11-10T06:06:36;14.77;;;13.40;;
41952;SDS011;63613;28.200;112.870;2022-11-10T06:09:03;15.07;;;13.57;;
41952;SDS011;63613;28.200;112.870;2022-11-10T06:11:50;15.27;;;13.40;;
41952;SDS011;63613;28.200;112.870;2022-11-10T06:14:19;16.27;;;13.43;;
41952;SDS011;63613;28.200;112.870;2022-11-10T06:16:50;15.07;;;13.65;;
41952;SDS011;63613;28.200;112.870;2022-11-10T06:19:17;15.52;;;13.10;;
41952;SDS011;63613;28.200;112.870;2022-11-10T06:21:46;17.85;;;14.07;;
41952;SDS011;63613;28.200;112.870;2022-11-10T06:24:13;14.82;;;12.45;;
41952;SDS011;63613;28.200;112.870;2022-11-10T06:27:00;15.27;;;13.63;;
41952;SDS011;63613;28.200;112.870;2022-11-10T06:29:28;15.35;;;13.52;;
41952;SDS011;63613;28.200;112.870;2022-11-10T06:31:55;15.32;;;13.57;;
41952;SDS011;63613;28.200;112.870;2022-11-10T06:34:23;17.00;;;15.20;;
41952;SDS011;63613;28.200;112.870;2022-11-10T06:36:50;15.75;;;14.10;;
41952;SDS011;63613;28.200;112.870;2022-11-10T06:39:17;14.20;;;12.75;;
41952;SDS011;63613;28.200;112.870;2022-11-10T06:41:46;17.15;;;14.70;;
41952;SDS011;63613;28.200;112.870;2022-11-10T06:44:13;18.88;;;16.02;;
41952;SDS011;63613;28.200;112.870;2022-11-10T06:46:40;21.45;;;14.40;;
41952;SDS011;63613;28.200;112.870;2022-11-10T06:49:07;15.85;;;14.15;;
41952;SDS011;63613;28.200;112.870;2022-11-10T06:51:37;16.80;;;13.75;;
41952;SDS011;63613;28.200;112.870;2022-11-10T06:54:07;17.58;;;14.65;;
41952;SDS011;63613;28.200;112.870;2022-11-10T06:56:34;17.95;;;15.27;;
41952;SDS011;63613;28.200;112.870;2022-11-10T06:59:22;19.25;;;14.63;;
41952;SDS011;63613;28.200;112.870;2022-11-10T07:02:15;17.98;;;14.77;;
41952;SDS011;63613;28.200;112.870;2022-11-10T07:04:42;16.98;;;14.85;;
41952;SDS011;63613;28.200;112.870;2022-11-10T07:07:09;18.17;;;16.27;;
41952;SDS011;63613;28.200;112.870;2022-11-10T07:09:38;18.90;;;15.23;;
41952;SDS011;63613;28.200;112.870;2022-11-10T07:12:05;16.73;;;14.73;;
41952;SDS011;63613;28.200;112.870;2022-11-10T07:14:33;17.05;;;15.35;;
41952;SDS011;63613;28.200;112.870;2022-11-10T07:17:00;15.98;;;14.30;;
41952;SDS011;63613;28.200;112.870;2022-11-10T07:19:27;21.52;;;14.75;;
41952;SDS011;63613;28.200;112.870;2022-11-10T07:21:54;15.32;;;13.13;;
41952;SDS011;63613;28.200;112.870;2022-11-10T07:24:21;14.63;;;13.18;;
41952;SDS011;63613;28.200;112.870;2022-11-10T07:26:48;15.57;;;14.07;;
41952;SDS011;63613;28.200;112.870;2022-11-10T07:29:16;16.38;;;14.68;;
41952;SDS011;63613;28.200;112.870;2022-11-10T07:31:43;16.92;;;14.40;;
41952;SDS011;63613;28.200;112.870;2022-11-10T07:34:10;15.25;;;13.90;;
41952;SDS011;63613;28.200;112.870;2022-11-10T07:36:37;18.33;;;14.77;;
41952;SDS011;63613;28.200;112.870;2022-11-10T07:39:04;16.08;;;14.45;;
41952;SDS011;63613;28.200;112.870;2022-11-10T07:41:31;16.60;;;14.32;;
41952;SDS011;63613;28.200;112.870;2022-11-10T07:44:01;17.23;;;15.52;;
41952;SDS011;63613;28.200;112.870;2022-11-10T07:46:29;17.85;;;13.88;;
41952;SDS011;63613;28.200;112.870;2022-11-10T07:48:57;17.73;;;13.23;;
41952;SDS011;63613;28.200;112.870;2022-11-10T07:51:24;18.45;;;14.82;;
41952;SDS011;63613;28.200;112.870;2022-11-10T07:54:11;18.23;;;14.48;;
41952;SDS011;63613;28.200;112.870;2022-11-10T07:56:38;18.92;;;14.25;;
41952;SDS011;63613;28.200;112.870;2022-11-10T07:59:06;19.33;;;14.02;;
41952;SDS011;63613;28.200;112.870;2022-11-10T08:01:34;15.13;;;13.52;;
41952;SDS011;63613;28.200;112.870;2022-11-10T08:04:01;16.80;;;15.07;;
41952;SDS011;63613;28.200;112.870;2022-11-10T08:06:29;18.75;;;15.35;;
41952;SDS011;63613;28.200;112.870;2022-11-10T08:08:57;19.83;;;15.38;;
41952;SDS011;63613;28.200;112.870;2022-11-10T08:11:24;19.35;;;13.88;;
41952;SDS011;63613;28.200;112.870;2022-11-10T08:13:51;19.40;;;14.95;;
41952;SDS011;63613;28.200;112.870;2022-11-10T08:16:18;20.38;;;14.65;;
41952;SDS011;63613;28.200;112.870;2022-11-10T08:18:45;19.40;;;15.05;;
41952;SDS011;63613;28.200;112.870;2022-11-10T08:21:13;16.60;;;13.13;;
41952;SDS011;63613;28.200;112.870;2022-11-10T08:23:40;17.00;;;13.43;;
41952;SDS011;63613;28.200;112.870;2022-11-10T08:26:07;16.45;;;13.45;;
41952;SDS011;63613;28.200;112.870;2022-11-10T08:28:34;18.73;;;13.30;;
41952;SDS011;63613;28.200;112.870;2022-11-10T08:31:02;17.25;;;13.15;;
41952;SDS011;63613;28.200;112.870;2022-11-10T08:33:30;20.58;;;15.50;;
41952;SDS011;63613;28.200;112.870;2022-11-10T08:35:59;15.95;;;14.38;;
41952;SDS011;63613;28.200;112.870;2022-11-10T08:38:27;16.13;;;13.40;;
41952;SDS011;63613;28.200;112.870;2022-11-10T08:40:55;18.42;;;13.02;;
41952;SDS011;63613;28.200;112.870;2022-11-10T08:43:22;22.63;;;15.60;;
41952;SDS011;63613;28.200;112.870;2022-11-10T08:45:49;16.90;;;14.50;;
41952;SDS011;63613;28.200;112.870;2022-11-10T08:48:40;17.52;;;14.60;;
41952;SDS011;63613;28.200;112.870;2022-11-10T08:51:07;17.58;;;14.52;;
41952;SDS011;63613;28.200;112.870;2022-11-10T08:53:34;19.52;;;14.07;;
41952;SDS011;63613;28.200;112.870;2022-11-10T08:56:02;20.40;;;15.43;;
41952;SDS011;63613;28.200;112.870;2022-11-10T08:58:29;15.90;;;13.98;;
41952;SDS011;63613;28.200;112.870;2022-11-10T09:00:56;22.00;;;15.30;;
41952;SDS011;63613;28.200;112.870;2022-11-10T09:03:23;17.75;;;14.50;;
41952;SDS011;63613;28.200;112.870;2022-11-10T09:06:11;20.35;;;14.32;;
41952;SDS011;63613;28.200;112.870;2022-11-10T09:08:38;16.58;;;13.95;;
41952;SDS011;63613;28.200;112.870;2022-11-10T09:11:05;20.15;;;13.60;;
41952;SDS011;63613;28.200;112.870;2022-11-10T09:13:32;21.52;;;14.38;;
41952;SDS011;63613;28.200;112.870;2022-11-10T09:16:00;18.52;;;14.18;;
41952;SDS011;63613;28.200;112.870;2022-11-10T09:18:29;18.17;;;13.95;;
41952;SDS011;63613;28.200;112.870;2022-11-10T09:20:56;17.77;;;14.65;;
41952;SDS011;63613;28.200;112.870;2022-11-10T09:23:23;21.13;;;14.95;;
41952;SDS011;63613;28.200;112.870;2022-11-10T09:26:11;18.85;;;14.02;;
41952;SDS011;63613;28.200;112.870;2022-11-10T09:28:38;17.27;;;13.90;;
41952;SDS011;63613;28.200;112.870;2022-11-10T09:31:05;15.80;;;13.57;;
41952;SDS011;63613;28.200;112.870;2022-11-10T09:33:32;17.08;;;14.13;;
41952;SDS011;63613;28.200;112.870;2022-11-10T09:35:59;20.10;;;14.00;;
41952;SDS011;63613;28.200;112.870;2022-11-10T09:38:27;16.83;;;14.32;;
41952;SDS011;63613;28.200;112.870;2022-11-10T09:45:59;14.75;;;13.10;;
41952;SDS011;63613;28.200;112.870;2022-11-10T09:48:34;19.00;;;15.02;;
41952;SDS011;63613;28.200;112.870;2022-11-10T09:51:08;19.23;;;15.80;;
41952;SDS011;63613;28.200;112.870;2022-11-10T09:57:00;21.83;;;16.92;;
41952;SDS011;63613;28.200;112.870;2022-11-10T09:59:33;20.13;;;15.40;;
41952;SDS011;63613;28.200;112.870;2022-11-10T10:08:02;19.10;;;14.85;;
41952;SDS011;63613;28.200;112.870;2022-11-10T10:11:05;18.48;;;15.15;;
41952;SDS011;63613;28.200;112.870;2022-11-10T10:13:59;20.17;;;15.43;;
41952;SDS011;63613;28.200;112.870;2022-11-10T10:25:23;18.67;;;15.23;;
41952;SDS011;63613;28.200;112.870;2022-11-10T10:30:43;20.13;;;15.50;;
41952;SDS011;63613;28.200;112.870;2022-11-10T10:33:31;23.60;;;17.30;;
41952;SDS011;63613;28.200;112.870;2022-11-10T10:35:59;23.85;;;17.50;;
41952;SDS011;63613;28.200;112.870;2022-11-10T10:38:33;24.60;;;17.60;;
41952;SDS011;63613;28.200;112.870;2022-11-10T10:41:11;26.55;;;18.15;;
41952;SDS011;63613;28.200;112.870;2022-11-10T10:43:50;22.65;;;17.17;;
41952;SDS011;63613;28.200;112.870;2022-11-10T10:46:19;26.23;;;18.25;;
41952;SDS011;63613;28.200;112.870;2022-11-10T10:51:36;23.17;;;17.10;;
41952;SDS011;63613;28.200;112.870;2022-11-10T10:54:03;26.88;;;17.73;;
41952;SDS011;63613;28.200;112.870;2022-11-10T10:56:46;27.73;;;19.93;;
41952;SDS011;63613;28.200;112.870;2022-11-10T10:59:20;26.52;;;19.70;;
41952;SDS011;63613;28.200;112.870;2022-11-10T11:01:51;28.80;;;19.52;;
41952;SDS011;63613;28.200;112.870;2022-11-10T11:06:56;26.00;;;19.52;;
41952;SDS011;63613;28.200;112.870;2022-11-10T11:09:29;25.33;;;19.35;;
41952;SDS011;63613;28.200;112.870;2022-11-10T11:14:47;31.37;;;21.27;;
41952;SDS011;63613;28.200;112.870;2022-11-10T11:19:46;28.50;;;19.27;;
41952;SDS011;63613;28.200;112.870;2022-11-10T11:25:28;30.08;;;20.20;;
41952;SDS011;63613;28.200;112.870;2022-11-10T11:28:03;27.25;;;19.25;;
41952;SDS011;63613;28.200;112.870;2022-11-10T11:36:45;28.13;;;19.63;;
41952;SDS011;63613;28.200;112.870;2022-11-10T11:47:47;23.52;;;18.83;;
41952;SDS011;63613;28.200;112.870;2022-11-10T11:50:35;22.58;;;17.98;;
41952;SDS011;63613;28.200;112.870;2022-11-10T11:55:47;23.85;;;18.10;;
41952;SDS011;63613;28.200;112.870;2022-11-10T12:01:06;22.20;;;18.15;;
41952;SDS011;63613;28.200;112.870;2022-11-10T12:23:46;26.95;;;19.95;;
41952;SDS011;63613;28.200;112.870;2022-11-10T12:25:49;29.25;;;21.10;;
41952;SDS011;63613;28.200;112.870;2022-11-10T12:31:44;27.02;;;20.23;;
41952;SDS011;63613;28.200;112.870;2022-11-10T12:34:17;30.23;;;20.10;;
41952;SDS011;63613;28.200;112.870;2022-11-10T12:36:57;29.20;;;20.10;;
41952;SDS011;63613;28.200;112.870;2022-11-10T12:42:25;27.85;;;20.55;;
41952;SDS011;63613;28.200;112.870;2022-11-10T12:47:47;27.25;;;20.98;;
41952;SDS011;63613;28.200;112.870;2022-11-10T12:55:35;28.55;;;19.65;;
41952;SDS011;63613;28.200;112.870;2022-11-10T12:58:16;27.23;;;19.17;;
41952;SDS011;63613;28.200;112.870;2022-11-10T13:06:03;25.83;;;18.48;;
41952;SDS011;63613;28.200;112.870;2022-11-10T13:14:00;25.13;;;17.73;;
41952;SDS011;63613;28.200;112.870;2022-11-10T13:19:07;21.70;;;17.30;;
41952;SDS011;63613;28.200;112.870;2022-11-10T13:24:22;22.52;;;17.80;;
41952;SDS011;63613;28.200;112.870;2022-11-10T13:27:03;22.60;;;17.75;;
41952;SDS011;63613;28.200;112.870;2022-11-10T13:29:32;24.65;;;20.20;;
41952;SDS011;63613;28.200;112.870;2022-11-10T13:34:44;27.02;;;19.25;;
41952;SDS011;63613;28.200;112.870;2022-11-10T13:50:57;23.58;;;17.77;;
41952;SDS011;63613;28.200;112.870;2022-11-10T13:57:14;18.92;;;16.08;;
41952;SDS011;63613;28.200;112.870;2022-11-10T13:59:46;19.80;;;16.48;;
41952;SDS011;63613;28.200;112.870;2022-11-10T14:05:01;19.70;;;15.82;;
41952;SDS011;63613;28.200;112.870;2022-11-10T14:07:33;22.20;;;16.95;;
41952;SDS011;63613;28.200;112.870;2022-11-10T14:10:04;20.55;;;16.77;;
41952;SDS011;63613;28.200;112.870;2022-11-10T14:13:00;20.80;;;16.90;;
41952;SDS011;63613;28.200;112.870;2022-11-10T14:15:42;19.40;;;16.48;;
41952;SDS011;63613;28.200;112.870;2022-11-10T14:18:17;18.33;;;14.95;;
41952;SDS011;63613;28.200;112.870;2022-11-10T14:21:01;19.05;;;16.30;;
41952;SDS011;63613;28.200;112.870;2022-11-10T14:26:01;19.17;;;15.68;;
41952;SDS011;63613;28.200;112.870;2022-11-10T14:28:50;18.05;;;15.52;;
41952;SDS011;63613;28.200;112.870;2022-11-10T14:31:25;19.40;;;16.42;;
41952;SDS011;63613;28.200;112.870;2022-11-10T14:33:54;19.02;;;16.25;;
41952;SDS011;63613;28.200;112.870;2022-11-10T14:36:23;17.25;;;14.50;;
41952;SDS011;63613;28.200;112.870;2022-11-10T14:38:50;19.58;;;16.77;;
41952;SDS011;63613;28.200;112.870;2022-11-10T14:41:19;20.65;;;16.65;;
41952;SDS011;63613;28.200;112.870;2022-11-10T14:43:59;19.40;;;16.80;;
41952;SDS011;63613;28.200;112.870;2022-11-10T14:46:26;17.90;;;15.30;;
41952;SDS011;63613;28.200;112.870;2022-11-10T14:48:57;20.08;;;15.90;;
41952;SDS011;63613;28.200;112.870;2022-11-10T14:51:27;21.02;;;16.52;;
41952;SDS011;63613;28.200;112.870;2022-11-10T14:53:55;19.70;;;16.45;;
41952;SDS011;63613;28.200;112.870;2022-11-10T14:56:45;18.42;;;16.35;;
41952;SDS011;63613;28.200;112.870;2022-11-10T14:59:12;20.90;;;17.60;;
41952;SDS011;63613;28.200;112.870;2022-11-10T15:01:47;20.42;;;16.83;;
41952;SDS011;63613;28.200;112.870;2022-11-10T15:04:19;21.75;;;17.55;;
41952;SDS011;63613;28.200;112.870;2022-11-10T15:06:53;20.52;;;17.73;;
41952;SDS011;63613;28.200;112.870;2022-11-10T15:09:25;19.67;;;17.65;;
41952;SDS011;63613;28.200;112.870;2022-11-10T15:14:42;21.52;;;18.27;;
41952;SDS011;63613;28.200;112.870;2022-11-10T15:17:12;20.77;;;17.52;;
41952;SDS011;63613;28.200;112.870;2022-11-10T15:22:35;24.25;;;19.13;;
41952;SDS011;63613;28.200;112.870;2022-11-10T15:25:23;22.33;;;19.33;;
41952;SDS011;63613;28.200;112.870;2022-11-10T15:27:59;22.45;;;19.48;;
41952;SDS011;63613;28.200;112.870;2022-11-10T15:30:31;19.67;;;17.60;;
41952;SDS011;63613;28.200;112.870;2022-11-10T15:32:59;19.50;;;17.02;;
41952;SDS011;63613;28.200;112.870;2022-11-10T15:40:43;17.85;;;15.95;;
41952;SDS011;63613;28.200;112.870;2022-11-10T15:43:24;19.10;;;16.73;;
41952;SDS011;63613;28.200;112.870;2022-11-10T15:46:12;19.10;;;17.02;;
41952;SDS011;63613;28.200;112.870;2022-11-10T15:48:45;17.15;;;15.43;;
41952;SDS011;63613;28.200;112.870;2022-11-10T15:51:16;18.45;;;16.35;;
41952;SDS011;63613;28.200;112.870;2022-11-10T15:53:48;18.95;;;16.45;;
41952;SDS011;63613;28.200;112.870;2022-11-10T15:56:17;18.83;;;16.92;;
41952;SDS011;63613;28.200;112.870;2022-11-10T15:58:47;18.05;;;16.02;;
41952;SDS011;63613;28.200;112.870;2022-11-10T16:01:16;17.67;;;15.95;;
41952;SDS011;63613;28.200;112.870;2022-11-10T16:03:43;18.83;;;16.73;;
41952;SDS011;63613;28.200;112.870;2022-11-10T16:06:11;17.42;;;15.68;;
41952;SDS011;63613;28.200;112.870;2022-11-10T16:08:39;19.65;;;17.55;;
41952;SDS011;63613;28.200;112.870;2022-11-10T16:11:17;21.70;;;17.55;;
41952;SDS011;63613;28.200;112.870;2022-11-10T16:13:46;20.88;;;17.88;;
41952;SDS011;63613;28.200;112.870;2022-11-10T16:16:15;19.58;;;17.50;;
41952;SDS011;63613;28.200;112.870;2022-11-10T16:19:03;19.30;;;17.25;;
41952;SDS011;63613;28.200;112.870;2022-11-10T16:21:30;19.13;;;17.00;;
41952;SDS011;63613;28.200;112.870;2022-11-10T16:23:58;17.58;;;15.63;;
41952;SDS011;63613;28.200;112.870;2022-11-10T16:26:25;20.50;;;17.40;;
41952;SDS011;63613;28.200;112.870;2022-11-10T16:28:53;19.80;;;17.58;;
41952;SDS011;63613;28.200;112.870;2022-11-10T16:31:24;18.80;;;16.35;;
41952;SDS011;63613;28.200;112.870;2022-11-10T16:34:03;20.38;;;17.15;;
41952;SDS011;63613;28.200;112.870;2022-11-10T16:36:36;18.58;;;16.60;;
41952;SDS011;63613;28.200;112.870;2022-11-10T16:39:10;19.05;;;17.05;;
41952;SDS011;63613;28.200;112.870;2022-11-10T16:41:38;18.85;;;16.85;;
41952;SDS011;63613;28.200;112.870;2022-11-10T16:44:15;20.00;;;15.52;;
41952;SDS011;63613;28.200;112.870;2022-11-10T16:46:48;18.80;;;16.88;;